sensor_id;sensor_type;location;lat;lon;timestamp;temperature;humidity
4578;DHT22;2301;47.354;8.528;2023-07-22T00:01:19;21.60;76.50
4578;DHT22;2301;47.354;8.528;2023-07-22T00:03:45;21.60;76.80
4578;DHT22;2301;47.354;8.528;2023-07-22T00:06:12;21.60;76.90
4578;DHT22;2301;47.354;8.528;2023-07-22T00:08:39;21.60;76.90
4578;DHT22;2301;47.354;8.528;2023-07-22T00:11:08;21.60;76.90
4578;DHT22;2301;47.354;8.528;2023-07-22T00:13:35;21.60;76.80
4578;DHT22;2301;47.354;8.528;2023-07-22T00:16:02;21.60;76.90
4578;DHT22;2301;47.354;8.528;2023-07-22T00:18:30;21.60;76.90
4578;DHT22;2301;47.354;8.528;2023-07-22T00:20:57;21.60;77.10
4578;DHT22;2301;47.354;8.528;2023-07-22T00:23:24;21.60;77.10
4578;DHT22;2301;47.354;8.528;2023-07-22T00:25:51;21.60;77.10
4578;DHT22;2301;47.354;8.528;2023-07-22T00:28:19;21.60;77.10
4578;DHT22;2301;47.354;8.528;2023-07-22T00:30:46;21.60;77.20
4578;DHT22;2301;47.354;8.528;2023-07-22T00:33:14;21.60;77.40
4578;DHT22;2301;47.354;8.528;2023-07-22T00:35:41;21.60;77.50
4578;DHT22;2301;47.354;8.528;2023-07-22T00:38:08;21.60;77.40
4578;DHT22;2301;47.354;8.528;2023-07-22T00:40:36;21.50;77.40
4578;DHT22;2301;47.354;8.528;2023-07-22T00:43:03;21.50;77.30
4578;DHT22;2301;47.354;8.528;2023-07-22T00:45:34;21.50;77.60
4578;DHT22;2301;47.354;8.528;2023-07-22T00:48:01;21.50;77.80
4578;DHT22;2301;47.354;8.528;2023-07-22T00:50:28;21.50;77.90
4578;DHT22;2301;47.354;8.528;2023-07-22T00:52:55;21.50;78.00
4578;DHT22;2301;47.354;8.528;2023-07-22T00:55:23;21.40;78.10
4578;DHT22;2301;47.354;8.528;2023-07-22T00:57:49;21.40;78.10
4578;DHT22;2301;47.354;8.528;2023-07-22T01:00:16;21.40;78.20
4578;DHT22;2301;47.354;8.528;2023-07-22T01:02:45;21.40;78.10
4578;DHT22;2301;47.354;8.528;2023-07-22T01:05:12;21.40;78.30
4578;DHT22;2301;47.354;8.528;2023-07-22T01:07:39;21.40;78.60
4578;DHT22;2301;47.354;8.528;2023-07-22T01:10:08;21.30;78.50
4578;DHT22;2301;47.354;8.528;2023-07-22T01:12:37;21.40;78.70
4578;DHT22;2301;47.354;8.528;2023-07-22T01:15:05;21.40;78.80
4578;DHT22;2301;47.354;8.528;2023-07-22T01:17:33;21.40;78.90
4578;DHT22;2301;47.354;8.528;2023-07-22T01:20:03;21.30;79.10
4578;DHT22;2301;47.354;8.528;2023-07-22T01:22:31;21.30;79.30
4578;DHT22;2301;47.354;8.528;2023-07-22T01:25:00;21.30;79.60
4578;DHT22;2301;47.354;8.528;2023-07-22T01:27:27;21.30;79.70
4578;DHT22;2301;47.354;8.528;2023-07-22T01:29:54;21.30;79.70
4578;DHT22;2301;47.354;8.528;2023-07-22T01:32:21;21.30;79.90
4578;DHT22;2301;47.354;8.528;2023-07-22T01:34:48;21.30;80.00
4578;DHT22;2301;47.354;8.528;2023-07-22T01:37:15;21.30;79.90
4578;DHT22;2301;47.354;8.528;2023-07-22T01:39:42;21.30;79.80
4578;DHT22;2301;47.354;8.528;2023-07-22T01:42:10;21.30;79.70
4578;DHT22;2301;47.354;8.528;2023-07-22T01:44:39;21.30;79.60
4578;DHT22;2301;47.354;8.528;2023-07-22T01:47:06;21.30;80.40
4578;DHT22;2301;47.354;8.528;2023-07-22T01:49:33;21.30;79.40
4578;DHT22;2301;47.354;8.528;2023-07-22T01:52:00;21.30;80.00
4578;DHT22;2301;47.354;8.528;2023-07-22T01:54:27;21.40;79.60
4578;DHT22;2301;47.354;8.528;2023-07-22T01:56:54;21.30;79.50
4578;DHT22;2301;47.354;8.528;2023-07-22T01:59:22;21.30;79.60
4578;DHT22;2301;47.354;8.528;2023-07-22T02:01:49;21.30;79.80
4578;DHT22;2301;47.354;8.528;2023-07-22T02:04:16;21.30;79.90
4578;DHT22;2301;47.354;8.528;2023-07-22T02:06:43;21.30;80.00
4578;DHT22;2301;47.354;8.528;2023-07-22T02:09:11;21.30;80.20
4578;DHT22;2301;47.354;8.528;2023-07-22T02:11:39;21.20;80.20
4578;DHT22;2301;47.354;8.528;2023-07-22T02:14:06;21.20;80.20
4578;DHT22;2301;47.354;8.528;2023-07-22T02:16:35;21.20;80.10
4578;DHT22;2301;47.354;8.528;2023-07-22T02:19:02;21.20;80.50
4578;DHT22;2301;47.354;8.528;2023-07-22T02:21:29;21.20;80.50
4578;DHT22;2301;47.354;8.528;2023-07-22T02:23:56;21.20;80.50
4578;DHT22;2301;47.354;8.528;2023-07-22T02:26:23;21.20;81.20
4578;DHT22;2301;47.354;8.528;2023-07-22T02:28:50;21.20;80.50
4578;DHT22;2301;47.354;8.528;2023-07-22T02:31:17;21.20;80.70
4578;DHT22;2301;47.354;8.528;2023-07-22T02:33:45;21.20;80.70
4578;DHT22;2301;47.354;8.528;2023-07-22T02:36:13;21.20;80.80
4578;DHT22;2301;47.354;8.528;2023-07-22T02:38:42;21.10;80.70
4578;DHT22;2301;47.354;8.528;2023-07-22T02:41:08;21.20;81.00
4578;DHT22;2301;47.354;8.528;2023-07-22T02:43:35;21.10;81.00
4578;DHT22;2301;47.354;8.528;2023-07-22T02:46:05;21.10;81.30
4578;DHT22;2301;47.354;8.528;2023-07-22T02:48:33;21.00;81.50
4578;DHT22;2301;47.354;8.528;2023-07-22T02:51:04;21.00;81.60
4578;DHT22;2301;47.354;8.528;2023-07-22T02:53:31;21.00;81.80
4578;DHT22;2301;47.354;8.528;2023-07-22T02:55:58;21.00;81.90
4578;DHT22;2301;47.354;8.528;2023-07-22T02:58:25;21.00;82.10
4578;DHT22;2301;47.354;8.528;2023-07-22T03:00:52;20.90;82.20
4578;DHT22;2301;47.354;8.528;2023-07-22T03:03:19;20.90;82.30
4578;DHT22;2301;47.354;8.528;2023-07-22T03:05:46;20.90;82.50
4578;DHT22;2301;47.354;8.528;2023-07-22T03:08:14;20.90;82.50
4578;DHT22;2301;47.354;8.528;2023-07-22T03:10:41;20.90;82.40
4578;DHT22;2301;47.354;8.528;2023-07-22T03:13:12;20.90;82.60
4578;DHT22;2301;47.354;8.528;2023-07-22T03:15:39;20.90;82.60
4578;DHT22;2301;47.354;8.528;2023-07-22T03:18:06;20.80;82.40
4578;DHT22;2301;47.354;8.528;2023-07-22T03:20:35;20.90;82.50
4578;DHT22;2301;47.354;8.528;2023-07-22T03:23:02;20.90;82.30
4578;DHT22;2301;47.354;8.528;2023-07-22T03:25:30;20.90;82.30
4578;DHT22;2301;47.354;8.528;2023-07-22T03:27:57;20.90;82.30
4578;DHT22;2301;47.354;8.528;2023-07-22T03:30:25;20.90;82.10
4578;DHT22;2301;47.354;8.528;2023-07-22T03:32:52;20.80;82.00
4578;DHT22;2301;47.354;8.528;2023-07-22T03:35:19;20.80;81.90
4578;DHT22;2301;47.354;8.528;2023-07-22T03:37:45;20.80;81.90
4578;DHT22;2301;47.354;8.528;2023-07-22T03:40:12;20.80;82.00
4578;DHT22;2301;47.354;8.528;2023-07-22T03:42:48;20.80;82.00
4578;DHT22;2301;47.354;8.528;2023-07-22T03:45:15;20.80;81.90
4578;DHT22;2301;47.354;8.528;2023-07-22T03:47:44;20.80;81.90
4578;DHT22;2301;47.354;8.528;2023-07-22T03:50:11;20.80;82.00
4578;DHT22;2301;47.354;8.528;2023-07-22T03:52:38;20.80;82.20
4578;DHT22;2301;47.354;8.528;2023-07-22T03:55:05;20.80;82.10
4578;DHT22;2301;47.354;8.528;2023-07-22T03:57:32;20.80;82.10
4578;DHT22;2301;47.354;8.528;2023-07-22T04:00:00;20.80;82.00
4578;DHT22;2301;47.354;8.528;2023-07-22T04:02:29;20.80;81.80
4578;DHT22;2301;47.354;8.528;2023-07-22T04:04:56;20.80;81.70
4578;DHT22;2301;47.354;8.528;2023-07-22T04:07:23;20.70;81.60
4578;DHT22;2301;47.354;8.528;2023-07-22T04:09:50;20.70;81.80
4578;DHT22;2301;47.354;8.528;2023-07-22T04:12:17;20.70;81.80
4578;DHT22;2301;47.354;8.528;2023-07-22T04:14:44;20.60;81.90
4578;DHT22;2301;47.354;8.528;2023-07-22T04:17:12;20.70;82.10
4578;DHT22;2301;47.354;8.528;2023-07-22T04:19:41;20.60;82.20
4578;DHT22;2301;47.354;8.528;2023-07-22T04:22:07;20.60;82.40
4578;DHT22;2301;47.354;8.528;2023-07-22T04:24:35;20.60;82.30
4578;DHT22;2301;47.354;8.528;2023-07-22T04:27:02;20.60;82.30
4578;DHT22;2301;47.354;8.528;2023-07-22T04:29:29;20.60;82.20
4578;DHT22;2301;47.354;8.528;2023-07-22T04:31:57;20.70;82.30
4578;DHT22;2301;47.354;8.528;2023-07-22T04:34:29;20.70;82.30
4578;DHT22;2301;47.354;8.528;2023-07-22T04:36:56;20.70;82.20
4578;DHT22;2301;47.354;8.528;2023-07-22T04:39:23;20.70;82.20
4578;DHT22;2301;47.354;8.528;2023-07-22T04:41:50;20.70;82.00
4578;DHT22;2301;47.354;8.528;2023-07-22T04:44:17;20.70;82.00
4578;DHT22;2301;47.354;8.528;2023-07-22T04:46:44;20.70;81.90
4578;DHT22;2301;47.354;8.528;2023-07-22T04:49:11;20.70;82.00
4578;DHT22;2301;47.354;8.528;2023-07-22T04:51:40;20.80;82.30
4578;DHT22;2301;47.354;8.528;2023-07-22T04:54:07;20.80;83.00
4578;DHT22;2301;47.354;8.528;2023-07-22T04:56:34;20.80;82.10
4578;DHT22;2301;47.354;8.528;2023-07-22T04:59:01;20.80;82.00
4578;DHT22;2301;47.354;8.528;2023-07-22T05:01:28;20.80;82.00
4578;DHT22;2301;47.354;8.528;2023-07-22T05:03:55;20.90;82.10
4578;DHT22;2301;47.354;8.528;2023-07-22T05:06:23;20.90;82.20
4578;DHT22;2301;47.354;8.528;2023-07-22T05:08:52;20.90;82.30
4578;DHT22;2301;47.354;8.528;2023-07-22T05:11:18;20.90;82.40
4578;DHT22;2301;47.354;8.528;2023-07-22T05:13:45;20.90;82.30
4578;DHT22;2301;47.354;8.528;2023-07-22T05:16:12;20.90;82.50
4578;DHT22;2301;47.354;8.528;2023-07-22T05:18:39;20.90;82.30
4578;DHT22;2301;47.354;8.528;2023-07-22T05:21:06;20.90;82.90
4578;DHT22;2301;47.354;8.528;2023-07-22T05:23:33;20.90;82.10
4578;DHT22;2301;47.354;8.528;2023-07-22T05:26:01;21.00;82.20
4578;DHT22;2301;47.354;8.528;2023-07-22T05:28:28;21.00;82.20
4578;DHT22;2301;47.354;8.528;2023-07-22T05:30:55;21.00;82.20
4578;DHT22;2301;47.354;8.528;2023-07-22T05:33:22;21.00;82.10
4578;DHT22;2301;47.354;8.528;2023-07-22T05:35:49;21.10;82.00
4578;DHT22;2301;47.354;8.528;2023-07-22T05:38:16;21.10;82.00
4578;DHT22;2301;47.354;8.528;2023-07-22T05:40:43;21.10;81.80
4578;DHT22;2301;47.354;8.528;2023-07-22T05:43:11;21.10;81.90
4578;DHT22;2301;47.354;8.528;2023-07-22T05:45:38;21.10;81.80
4578;DHT22;2301;47.354;8.528;2023-07-22T05:48:05;21.10;81.80
4578;DHT22;2301;47.354;8.528;2023-07-22T05:50:32;21.10;81.90
4578;DHT22;2301;47.354;8.528;2023-07-22T05:52:59;21.10;82.00
4578;DHT22;2301;47.354;8.528;2023-07-22T05:55:26;21.10;81.90
4578;DHT22;2301;47.354;8.528;2023-07-22T05:57:53;21.10;81.80
4578;DHT22;2301;47.354;8.528;2023-07-22T06:00:22;21.10;81.50
4578;DHT22;2301;47.354;8.528;2023-07-22T06:02:48;21.20;81.50
4578;DHT22;2301;47.354;8.528;2023-07-22T06:05:15;21.20;81.60
4578;DHT22;2301;47.354;8.528;2023-07-22T06:07:42;21.20;81.70
4578;DHT22;2301;47.354;8.528;2023-07-22T06:10:09;21.20;81.50
4578;DHT22;2301;47.354;8.528;2023-07-22T06:12:36;21.30;81.40
4578;DHT22;2301;47.354;8.528;2023-07-22T06:15:05;21.30;81.20
4578;DHT22;2301;47.354;8.528;2023-07-22T06:17:33;21.40;81.10
4578;DHT22;2301;47.354;8.528;2023-07-22T06:20:00;21.40;80.90
4578;DHT22;2301;47.354;8.528;2023-07-22T06:22:27;21.40;80.90
4578;DHT22;2301;47.354;8.528;2023-07-22T06:24:54;21.50;80.80
4578;DHT22;2301;47.354;8.528;2023-07-22T06:27:21;21.40;80.60
4578;DHT22;2301;47.354;8.528;2023-07-22T06:29:48;21.50;80.50
4578;DHT22;2301;47.354;8.528;2023-07-22T06:32:15;21.50;80.40
4578;DHT22;2301;47.354;8.528;2023-07-22T06:34:43;21.50;80.40
4578;DHT22;2301;47.354;8.528;2023-07-22T06:37:10;21.60;80.70
4578;DHT22;2301;47.354;8.528;2023-07-22T06:39:37;21.60;80.80
4578;DHT22;2301;47.354;8.528;2023-07-22T06:42:04;21.70;81.00
4578;DHT22;2301;47.354;8.528;2023-07-22T06:44:31;21.80;80.60
4578;DHT22;2301;47.354;8.528;2023-07-22T06:46:58;21.90;80.50
4578;DHT22;2301;47.354;8.528;2023-07-22T06:49:24;22.00;80.30
4578;DHT22;2301;47.354;8.528;2023-07-22T06:51:53;22.00;79.80
4578;DHT22;2301;47.354;8.528;2023-07-22T06:54:19;22.10;79.90
4578;DHT22;2301;47.354;8.528;2023-07-22T06:56:46;22.20;80.00
4578;DHT22;2301;47.354;8.528;2023-07-22T06:59:13;22.30;79.40
4578;DHT22;2301;47.354;8.528;2023-07-22T07:01:40;22.40;78.70
4578;DHT22;2301;47.354;8.528;2023-07-22T07:04:07;22.60;79.00
4578;DHT22;2301;47.354;8.528;2023-07-22T07:06:34;22.70;79.60
4578;DHT22;2301;47.354;8.528;2023-07-22T07:09:02;22.80;78.30
4578;DHT22;2301;47.354;8.528;2023-07-22T07:11:29;22.90;77.70
4578;DHT22;2301;47.354;8.528;2023-07-22T07:13:56;23.10;77.20
4578;DHT22;2301;47.354;8.528;2023-07-22T07:16:25;23.10;76.20
4578;DHT22;2301;47.354;8.528;2023-07-22T07:18:52;23.20;76.20
4578;DHT22;2301;47.354;8.528;2023-07-22T07:21:20;23.40;75.80
4578;DHT22;2301;47.354;8.528;2023-07-22T07:23:48;23.50;75.50
4578;DHT22;2301;47.354;8.528;2023-07-22T07:26:16;23.70;75.60
4578;DHT22;2301;47.354;8.528;2023-07-22T07:28:43;23.90;75.20
4578;DHT22;2301;47.354;8.528;2023-07-22T07:31:12;24.00;73.70
4578;DHT22;2301;47.354;8.528;2023-07-22T07:33:39;24.10;72.90
4578;DHT22;2301;47.354;8.528;2023-07-22T07:36:06;24.10;72.20
4578;DHT22;2301;47.354;8.528;2023-07-22T07:38:32;24.10;72.10
4578;DHT22;2301;47.354;8.528;2023-07-22T07:41:01;24.10;71.80
4578;DHT22;2301;47.354;8.528;2023-07-22T07:43:30;24.10;70.90
4578;DHT22;2301;47.354;8.528;2023-07-22T07:46:13;24.20;71.60
4578;DHT22;2301;47.354;8.528;2023-07-22T07:48:43;24.40;71.40
4578;DHT22;2301;47.354;8.528;2023-07-22T07:51:10;24.50;70.70
4578;DHT22;2301;47.354;8.528;2023-07-22T07:53:37;24.70;70.10
4578;DHT22;2301;47.354;8.528;2023-07-22T07:56:04;24.70;69.80
4578;DHT22;2301;47.354;8.528;2023-07-22T07:58:32;24.70;69.70
4578;DHT22;2301;47.354;8.528;2023-07-22T08:00:59;24.70;69.10
4578;DHT22;2301;47.354;8.528;2023-07-22T08:03:26;24.80;68.90
4578;DHT22;2301;47.354;8.528;2023-07-22T08:05:53;25.00;68.50
4578;DHT22;2301;47.354;8.528;2023-07-22T08:08:20;25.00;68.90
4578;DHT22;2301;47.354;8.528;2023-07-22T08:10:47;25.20;67.60
4578;DHT22;2301;47.354;8.528;2023-07-22T08:13:14;25.30;67.00
4578;DHT22;2301;47.354;8.528;2023-07-22T08:15:42;25.40;66.40
4578;DHT22;2301;47.354;8.528;2023-07-22T08:18:09;25.50;65.60
4578;DHT22;2301;47.354;8.528;2023-07-22T08:20:36;25.70;64.90
4578;DHT22;2301;47.354;8.528;2023-07-22T08:23:03;25.60;64.00
4578;DHT22;2301;47.354;8.528;2023-07-22T08:25:29;25.60;63.90
4578;DHT22;2301;47.354;8.528;2023-07-22T08:27:56;25.50;63.60
4578;DHT22;2301;47.354;8.528;2023-07-22T08:30:23;25.50;63.50
4578;DHT22;2301;47.354;8.528;2023-07-22T08:32:52;25.60;63.30
4578;DHT22;2301;47.354;8.528;2023-07-22T08:35:19;25.80;62.90
4578;DHT22;2301;47.354;8.528;2023-07-22T08:37:47;26.00;62.40
4578;DHT22;2301;47.354;8.528;2023-07-22T08:40:14;26.20;62.00
4578;DHT22;2301;47.354;8.528;2023-07-22T08:42:41;26.50;61.50
4578;DHT22;2301;47.354;8.528;2023-07-22T08:45:10;26.60;60.90
4578;DHT22;2301;47.354;8.528;2023-07-22T08:47:40;26.70;60.50
4578;DHT22;2301;47.354;8.528;2023-07-22T08:50:15;26.70;60.30
4578;DHT22;2301;47.354;8.528;2023-07-22T08:52:43;26.90;60.30
4578;DHT22;2301;47.354;8.528;2023-07-22T08:55:11;27.00;59.70
4578;DHT22;2301;47.354;8.528;2023-07-22T08:57:38;27.20;58.80
4578;DHT22;2301;47.354;8.528;2023-07-22T09:00:06;27.30;58.20
4578;DHT22;2301;47.354;8.528;2023-07-22T09:02:35;27.30;57.50
4578;DHT22;2301;47.354;8.528;2023-07-22T09:05:03;27.40;56.70
4578;DHT22;2301;47.354;8.528;2023-07-22T09:07:33;27.40;56.30
4578;DHT22;2301;47.354;8.528;2023-07-22T09:10:00;27.50;56.80
4578;DHT22;2301;47.354;8.528;2023-07-22T09:12:29;27.60;56.50
4578;DHT22;2301;47.354;8.528;2023-07-22T09:14:58;27.40;56.90
4578;DHT22;2301;47.354;8.528;2023-07-22T09:17:30;27.60;57.10
4578;DHT22;2301;47.354;8.528;2023-07-22T09:19:59;27.60;56.90
4578;DHT22;2301;47.354;8.528;2023-07-22T09:22:26;27.40;56.50
4578;DHT22;2301;47.354;8.528;2023-07-22T09:25:13;27.30;56.90
4578;DHT22;2301;47.354;8.528;2023-07-22T09:27:43;27.10;57.50
4578;DHT22;2301;47.354;8.528;2023-07-22T09:30:23;26.90;56.70
4578;DHT22;2301;47.354;8.528;2023-07-22T09:32:51;26.70;55.90
4578;DHT22;2301;47.354;8.528;2023-07-22T09:35:18;26.60;56.70
4578;DHT22;2301;47.354;8.528;2023-07-22T09:37:46;26.50;56.80
4578;DHT22;2301;47.354;8.528;2023-07-22T09:40:16;26.40;56.70
4578;DHT22;2301;47.354;8.528;2023-07-22T09:42:48;26.30;56.80
4578;DHT22;2301;47.354;8.528;2023-07-22T09:45:15;26.40;56.00
4578;DHT22;2301;47.354;8.528;2023-07-22T09:47:44;26.40;55.60
4578;DHT22;2301;47.354;8.528;2023-07-22T09:50:12;26.80;56.50
4578;DHT22;2301;47.354;8.528;2023-07-22T09:52:46;27.00;55.50
4578;DHT22;2301;47.354;8.528;2023-07-22T09:55:17;27.10;55.30
4578;DHT22;2301;47.354;8.528;2023-07-22T09:57:46;27.20;54.60
4578;DHT22;2301;47.354;8.528;2023-07-22T10:00:14;27.20;54.50
4578;DHT22;2301;47.354;8.528;2023-07-22T10:02:42;27.00;54.70
4578;DHT22;2301;47.354;8.528;2023-07-22T10:05:14;26.80;54.70
4578;DHT22;2301;47.354;8.528;2023-07-22T10:07:46;26.60;54.40
4578;DHT22;2301;47.354;8.528;2023-07-22T10:10:16;26.40;54.30
4578;DHT22;2301;47.354;8.528;2023-07-22T10:12:44;26.40;55.30
4578;DHT22;2301;47.354;8.528;2023-07-22T10:15:12;26.60;55.50
4578;DHT22;2301;47.354;8.528;2023-07-22T10:17:40;26.90;55.20
4578;DHT22;2301;47.354;8.528;2023-07-22T10:20:08;27.40;55.30
4578;DHT22;2301;47.354;8.528;2023-07-22T10:22:41;27.80;54.40
4578;DHT22;2301;47.354;8.528;2023-07-22T10:25:08;28.10;53.20
4578;DHT22;2301;47.354;8.528;2023-07-22T10:27:38;28.50;53.10
4578;DHT22;2301;47.354;8.528;2023-07-22T10:30:07;28.90;52.50
4578;DHT22;2301;47.354;8.528;2023-07-22T10:32:35;29.20;51.40
4578;DHT22;2301;47.354;8.528;2023-07-22T10:35:03;29.50;51.10
4578;DHT22;2301;47.354;8.528;2023-07-22T10:37:31;29.70;49.60
4578;DHT22;2301;47.354;8.528;2023-07-22T10:40:00;29.90;49.30
4578;DHT22;2301;47.354;8.528;2023-07-22T10:42:27;30.10;48.80
4578;DHT22;2301;47.354;8.528;2023-07-22T10:45:00;30.10;47.70
4578;DHT22;2301;47.354;8.528;2023-07-22T10:47:34;30.30;48.20
4578;DHT22;2301;47.354;8.528;2023-07-22T10:50:07;30.30;48.50
4578;DHT22;2301;47.354;8.528;2023-07-22T10:52:41;30.50;48.50
4578;DHT22;2301;47.354;8.528;2023-07-22T10:55:16;30.80;47.00
4578;DHT22;2301;47.354;8.528;2023-07-22T10:57:50;30.90;45.20
4578;DHT22;2301;47.354;8.528;2023-07-22T11:00:20;31.20;43.90
4578;DHT22;2301;47.354;8.528;2023-07-22T11:03:11;31.30;42.70
4578;DHT22;2301;47.354;8.528;2023-07-22T11:05:48;31.60;43.70
4578;DHT22;2301;47.354;8.528;2023-07-22T11:08:16;31.90;41.90
4578;DHT22;2301;47.354;8.528;2023-07-22T11:10:53;32.30;41.70
4578;DHT22;2301;47.354;8.528;2023-07-22T11:13:27;32.50;40.60
4578;DHT22;2301;47.354;8.528;2023-07-22T11:15:59;32.40;39.20
4578;DHT22;2301;47.354;8.528;2023-07-22T11:18:36;32.30;38.10
4578;DHT22;2301;47.354;8.528;2023-07-22T11:21:07;32.10;37.10
4578;DHT22;2301;47.354;8.528;2023-07-22T11:23:34;32.00;37.50
4578;DHT22;2301;47.354;8.528;2023-07-22T11:26:02;32.00;38.20
4578;DHT22;2301;47.354;8.528;2023-07-22T11:28:30;31.80;38.50
4578;DHT22;2301;47.354;8.528;2023-07-22T11:30:58;31.60;38.60
4578;DHT22;2301;47.354;8.528;2023-07-22T11:33:34;31.60;39.10
4578;DHT22;2301;47.354;8.528;2023-07-22T11:36:04;31.70;38.50
4578;DHT22;2301;47.354;8.528;2023-07-22T11:38:31;31.50;38.80
4578;DHT22;2301;47.354;8.528;2023-07-22T11:40:58;31.50;38.90
4578;DHT22;2301;47.354;8.528;2023-07-22T11:43:26;31.40;38.80
4578;DHT22;2301;47.354;8.528;2023-07-22T11:45:53;31.30;38.80
4578;DHT22;2301;47.354;8.528;2023-07-22T11:48:21;31.20;38.00
4578;DHT22;2301;47.354;8.528;2023-07-22T11:50:48;31.10;38.20
4578;DHT22;2301;47.354;8.528;2023-07-22T11:53:15;30.80;39.10
4578;DHT22;2301;47.354;8.528;2023-07-22T11:55:42;30.80;38.70
4578;DHT22;2301;47.354;8.528;2023-07-22T11:58:10;30.90;39.10
4578;DHT22;2301;47.354;8.528;2023-07-22T12:00:37;30.80;37.50
4578;DHT22;2301;47.354;8.528;2023-07-22T12:03:06;30.70;36.80
4578;DHT22;2301;47.354;8.528;2023-07-22T12:05:36;30.60;37.70
4578;DHT22;2301;47.354;8.528;2023-07-22T12:08:04;30.70;37.60
4578;DHT22;2301;47.354;8.528;2023-07-22T12:10:32;30.80;37.30
4578;DHT22;2301;47.354;8.528;2023-07-22T12:13:01;30.90;36.50
4578;DHT22;2301;47.354;8.528;2023-07-22T12:15:28;31.10;36.40
4578;DHT22;2301;47.354;8.528;2023-07-22T12:17:59;31.10;36.40
4578;DHT22;2301;47.354;8.528;2023-07-22T12:20:28;31.10;36.70
4578;DHT22;2301;47.354;8.528;2023-07-22T12:22:57;31.00;37.60
4578;DHT22;2301;47.354;8.528;2023-07-22T12:25:25;31.00;37.50
4578;DHT22;2301;47.354;8.528;2023-07-22T12:27:51;30.90;37.50
4578;DHT22;2301;47.354;8.528;2023-07-22T12:30:19;30.80;37.70
4578;DHT22;2301;47.354;8.528;2023-07-22T12:32:47;30.70;37.70
4578;DHT22;2301;47.354;8.528;2023-07-22T12:35:14;30.50;37.70
4578;DHT22;2301;47.354;8.528;2023-07-22T12:37:40;30.50;36.70
4578;DHT22;2301;47.354;8.528;2023-07-22T12:40:10;30.50;36.60
4578;DHT22;2301;47.354;8.528;2023-07-22T12:42:37;30.70;37.00
4578;DHT22;2301;47.354;8.528;2023-07-22T12:45:05;30.70;35.40
4578;DHT22;2301;47.354;8.528;2023-07-22T12:47:33;30.70;35.10
4578;DHT22;2301;47.354;8.528;2023-07-22T12:50:00;30.80;34.70
4578;DHT22;2301;47.354;8.528;2023-07-22T12:52:27;30.80;33.90
4578;DHT22;2301;47.354;8.528;2023-07-22T12:54:54;30.80;33.80
4578;DHT22;2301;47.354;8.528;2023-07-22T12:57:22;30.80;34.40
4578;DHT22;2301;47.354;8.528;2023-07-22T12:59:49;30.70;35.30
4578;DHT22;2301;47.354;8.528;2023-07-22T13:02:16;30.70;34.70
4578;DHT22;2301;47.354;8.528;2023-07-22T13:04:43;30.80;34.40
4578;DHT22;2301;47.354;8.528;2023-07-22T13:07:11;30.80;34.40
4578;DHT22;2301;47.354;8.528;2023-07-22T13:09:38;30.70;34.00
4578;DHT22;2301;47.354;8.528;2023-07-22T13:12:06;30.50;33.30
4578;DHT22;2301;47.354;8.528;2023-07-22T13:14:34;30.30;33.90
4578;DHT22;2301;47.354;8.528;2023-07-22T13:17:01;30.30;34.30
4578;DHT22;2301;47.354;8.528;2023-07-22T13:19:28;30.30;34.30
4578;DHT22;2301;47.354;8.528;2023-07-22T13:21:55;30.40;34.40
4578;DHT22;2301;47.354;8.528;2023-07-22T13:24:22;30.50;35.50
4578;DHT22;2301;47.354;8.528;2023-07-22T13:26:49;30.50;35.00
4578;DHT22;2301;47.354;8.528;2023-07-22T13:29:16;30.50;35.10
4578;DHT22;2301;47.354;8.528;2023-07-22T13:31:44;30.40;35.10
4578;DHT22;2301;47.354;8.528;2023-07-22T13:34:11;30.20;34.60
4578;DHT22;2301;47.354;8.528;2023-07-22T13:36:38;30.10;34.50
4578;DHT22;2301;47.354;8.528;2023-07-22T13:39:05;30.20;34.80
4578;DHT22;2301;47.354;8.528;2023-07-22T13:41:31;30.30;33.70
4578;DHT22;2301;47.354;8.528;2023-07-22T13:43:58;30.20;34.00
4578;DHT22;2301;47.354;8.528;2023-07-22T13:46:25;30.30;34.40
4578;DHT22;2301;47.354;8.528;2023-07-22T13:48:53;30.20;34.20
4578;DHT22;2301;47.354;8.528;2023-07-22T13:51:20;30.20;34.20
4578;DHT22;2301;47.354;8.528;2023-07-22T13:53:47;30.10;33.70
4578;DHT22;2301;47.354;8.528;2023-07-22T13:56:14;30.00;34.10
4578;DHT22;2301;47.354;8.528;2023-07-22T13:58:42;30.00;34.90
4578;DHT22;2301;47.354;8.528;2023-07-22T14:01:08;30.00;34.30
4578;DHT22;2301;47.354;8.528;2023-07-22T14:03:35;29.90;33.20
4578;DHT22;2301;47.354;8.528;2023-07-22T14:06:04;29.90;32.80
4578;DHT22;2301;47.354;8.528;2023-07-22T14:08:30;29.90;31.50
4578;DHT22;2301;47.354;8.528;2023-07-22T14:10:59;29.70;31.90
4578;DHT22;2301;47.354;8.528;2023-07-22T14:13:26;29.70;32.50
4578;DHT22;2301;47.354;8.528;2023-07-22T14:15:53;29.60;33.20
4578;DHT22;2301;47.354;8.528;2023-07-22T14:18:19;29.70;33.70
4578;DHT22;2301;47.354;8.528;2023-07-22T14:20:46;29.70;33.30
4578;DHT22;2301;47.354;8.528;2023-07-22T14:23:15;29.60;32.40
4578;DHT22;2301;47.354;8.528;2023-07-22T14:25:41;29.60;32.20
4578;DHT22;2301;47.354;8.528;2023-07-22T14:28:08;29.50;33.50
4578;DHT22;2301;47.354;8.528;2023-07-22T14:30:35;29.60;32.90
4578;DHT22;2301;47.354;8.528;2023-07-22T14:33:05;29.60;33.20
4578;DHT22;2301;47.354;8.528;2023-07-22T14:35:36;29.60;33.70
4578;DHT22;2301;47.354;8.528;2023-07-22T14:38:04;29.70;34.10
4578;DHT22;2301;47.354;8.528;2023-07-22T14:40:33;29.60;34.00
4578;DHT22;2301;47.354;8.528;2023-07-22T14:43:00;29.60;33.60
4578;DHT22;2301;47.354;8.528;2023-07-22T14:45:27;29.60;32.60
4578;DHT22;2301;47.354;8.528;2023-07-22T14:47:55;29.60;32.00
4578;DHT22;2301;47.354;8.528;2023-07-22T14:50:22;29.60;31.70
4578;DHT22;2301;47.354;8.528;2023-07-22T14:52:49;29.50;30.90
4578;DHT22;2301;47.354;8.528;2023-07-22T14:55:16;29.50;30.50
4578;DHT22;2301;47.354;8.528;2023-07-22T14:57:45;29.40;30.40
4578;DHT22;2301;47.354;8.528;2023-07-22T15:00:12;29.40;30.20
4578;DHT22;2301;47.354;8.528;2023-07-22T15:02:39;29.30;31.10
4578;DHT22;2301;47.354;8.528;2023-07-22T15:05:09;29.30;31.00
4578;DHT22;2301;47.354;8.528;2023-07-22T15:07:36;29.30;31.30
4578;DHT22;2301;47.354;8.528;2023-07-22T15:10:04;29.30;31.90
4578;DHT22;2301;47.354;8.528;2023-07-22T15:12:32;29.40;32.20
4578;DHT22;2301;47.354;8.528;2023-07-22T15:15:05;29.40;31.30
4578;DHT22;2301;47.354;8.528;2023-07-22T15:17:33;29.30;31.60
4578;DHT22;2301;47.354;8.528;2023-07-22T15:20:00;29.20;31.60
4578;DHT22;2301;47.354;8.528;2023-07-22T15:22:27;29.20;33.70
4578;DHT22;2301;47.354;8.528;2023-07-22T15:24:54;29.20;33.10
4578;DHT22;2301;47.354;8.528;2023-07-22T15:27:21;29.30;33.90
4578;DHT22;2301;47.354;8.528;2023-07-22T15:29:47;29.30;33.80
4578;DHT22;2301;47.354;8.528;2023-07-22T15:32:16;29.20;33.60
4578;DHT22;2301;47.354;8.528;2023-07-22T15:34:43;29.20;32.40
4578;DHT22;2301;47.354;8.528;2023-07-22T15:37:10;29.10;33.30
4578;DHT22;2301;47.354;8.528;2023-07-22T15:39:36;29.20;33.70
4578;DHT22;2301;47.354;8.528;2023-07-22T15:42:04;29.20;34.80
4578;DHT22;2301;47.354;8.528;2023-07-22T15:44:31;29.20;34.60
4578;DHT22;2301;47.354;8.528;2023-07-22T15:46:58;29.10;35.30
4578;DHT22;2301;47.354;8.528;2023-07-22T15:49:28;29.10;35.20
4578;DHT22;2301;47.354;8.528;2023-07-22T15:51:55;29.10;36.20
4578;DHT22;2301;47.354;8.528;2023-07-22T15:54:21;29.10;35.90
4578;DHT22;2301;47.354;8.528;2023-07-22T15:56:49;29.10;35.70
4578;DHT22;2301;47.354;8.528;2023-07-22T15:59:16;29.10;36.20
4578;DHT22;2301;47.354;8.528;2023-07-22T16:01:42;29.10;36.80
4578;DHT22;2301;47.354;8.528;2023-07-22T16:04:09;29.00;36.20
4578;DHT22;2301;47.354;8.528;2023-07-22T16:06:38;29.00;36.30